This is the latest recevied weather packets stored in our database for station/object JQ2GLP-13. If no packets are shown the sender has not sent any weather packets the latest 10 day(s).
| Time | Temp. | Humidity | Pressure | Rain* | Wind** | Luminosity | Snow |
|---|---|---|---|---|---|---|---|
| 1777653433 | 13.33° C | 71% | 996.2 hPa | 0 mm | - | - | - |
| 1777651633 | 13.33° C | 71% | 996.1 hPa | 0 mm | - | - | - |
| 1777649833 | 13.89° C | 68% | 996.3 hPa | 0 mm | - | - | - |
| 1777648032 | 13.33° C | 67% | 996.1 hPa | 0 mm | - | - | - |
| 1777646234 | 13.33° C | 67% | 996.3 hPa | 0 mm | - | - | - |
| 1777640832 | 13.89° C | 69% | 995.3 hPa | 0 mm | - | - | - |
| 1777639033 | 13.89° C | 70% | 995.2 hPa | 0 mm | - | - | - |
| 1777635433 | 14.44° C | 66% | 994.3 hPa | 0 mm | - | - | - |
| 1777633633 | 15° C | 65% | 993.8 hPa | 0 mm | - | - | - |
| 1777631834 | 15.56° C | 64% | 993.3 hPa | 0 mm | - | - | - |
| 1777630032 | 16.11° C | 60% | 993 hPa | 0 mm | - | - | - |
| 1777622834 | 16.67° C | 82% | 991.6 hPa | 1.27 mm | - | - | - |
| 1777621033 | 16.11° C | 79% | 991.8 hPa | 1.78 mm | - | - | - |
| 1777617434 | 21.11° C | 58% | 990.9 hPa | 0 mm | - | - | - |
| 1777615635 | 21.11° C | 64% | 991.5 hPa | 0 mm | - | - | - |
| 1777606635 | 18.89° C | 95% | 993.3 hPa | 0 mm | - | - | - |
| 1777603034 | 17.22° C | 94% | 994.8 hPa | 1.27 mm | - | - | - |
| 1777595830 | 16.67° C | 93% | 997 hPa | 1.27 mm | - | - | - |
| 1777592231 | 16.11° C | 92% | 998.3 hPa | 7.87 mm | - | - | - |
| 1777586831 | 15.56° C | 93% | 999.8 hPa | 5.08 mm | - | - | - |
| 1777585032 | 15.56° C | 92% | 1001.3 hPa | 4.06 mm | - | - | - |
| 1777583232 | 15.56° C | 92% | 1001.2 hPa | 1.52 mm | - | - | - |
| 1777577832 | 15.56° C | 90% | 1002.3 hPa | 3.81 mm | - | - | - |
| 1777572432 | 15° C | 90% | 1004.4 hPa | 4.06 mm | - | - | - |
| 1777570632 | 15° C | 89% | 1006.6 hPa | 3.56 mm | - | - | - |
* Rain latest hour (hover to see other rain measurements)
** Current wind speed in m/s (hover to see current wind gust speed)